Time;durP1;ratioP1;P1;durP2;ratioP2;P2;SDS_P1;SDS_P2;PMS_P1;PMS_P2;Temp;Humidity;BMP_temperature;BMP_pressure;BME280_temperature;BME280_humidity;BME280_pressure;Samples;Min_cycle;Max_cycle;Signal;HPM_P1;HPM_P2
2022/03/24 00:01:10;;;;;;;32.47;29.07;;;7.10;83.70;;;;;;5084728;28;20448;-80
2022/03/24 00:03:39;;;;;;;33.30;29.73;;;7.00;83.60;;;;;;5103441;28;20432;-80
2022/03/24 00:06:09;;;;;;;32.63;29.07;;;7.00;83.70;;;;;;5101483;28;20475;-80
2022/03/24 00:08:37;;;;;;;31.17;27.97;;;7.00;83.80;;;;;;5086499;28;20508;-79
2022/03/24 00:11:05;;;;;;;33.30;29.80;;;6.90;83.80;;;;;;5100698;28;20468;-79
2022/03/24 00:13:33;;;;;;;32.17;28.37;;;6.90;84.00;;;;;;5098336;28;20448;-80
2022/03/24 00:16:01;;;;;;;33.03;29.33;;;6.90;84.10;;;;;;5088246;28;20476;-80
2022/03/24 00:18:32;;;;;;;34.80;31.03;;;6.80;84.20;;;;;;5085844;28;20973;-81
2022/03/24 00:21:00;;;;;;;33.10;28.93;;;6.80;84.30;;;;;;5080414;28;20462;-80
2022/03/24 00:23:28;;;;;;;34.33;30.63;;;6.80;84.30;;;;;;5084015;28;20488;-80
2022/03/24 00:25:57;;;;;;;37.63;29.90;;;6.70;84.40;;;;;;5095026;28;20479;-80
2022/03/24 00:28:26;;;;;;;34.13;30.43;;;6.70;84.50;;;;;;5091621;28;20459;-79
2022/03/24 00:30:54;;;;;;;32.13;28.73;;;6.70;84.60;;;;;;5084406;28;20476;-80
2022/03/24 00:33:22;;;;;;;32.13;28.67;;;6.60;84.70;;;;;;5083781;28;20812;-80
2022/03/24 00:35:52;;;;;;;33.37;29.00;;;6.60;84.70;;;;;;5084039;28;20476;-80
2022/03/24 00:38:21;;;;;;;33.80;30.30;;;6.50;84.70;;;;;;5083695;28;20441;-80
2022/03/24 00:40:49;;;;;;;37.83;29.93;;;6.50;84.70;;;;;;5082743;28;20462;-80
2022/03/24 00:43:18;;;;;;;33.93;30.40;;;6.50;84.80;;;;;;5095106;28;20448;-80
2022/03/24 00:45:46;;;;;;;32.20;28.70;;;6.50;84.90;;;;;;5085931;28;20461;-80
2022/03/24 00:48:16;;;;;;;32.03;28.53;;;6.40;84.90;;;;;;5083438;28;20459;-79
2022/03/24 00:50:44;;;;;;;30.23;27.10;;;6.40;84.90;;;;;;5078259;28;20480;-80
2022/03/24 00:53:15;;;;;;;33.60;30.00;;;6.30;84.90;;;;;;5064920;28;20476;-80
2022/03/24 00:55:45;;;;;;;36.10;31.00;;;6.30;85.00;;;;;;5083111;28;20459;-80
2022/03/24 00:58:16;;;;;;;32.70;28.27;;;6.30;85.00;;;;;;5083535;28;20448;-80
2022/03/24 01:00:44;;;;;;;36.73;33.00;;;6.30;85.10;;;;;;5087224;28;20524;-79
2022/03/24 01:03:13;;;;;;;34.80;30.20;;;6.20;85.10;;;;;;5083407;28;20973;-80
2022/03/24 01:05:42;;;;;;;33.53;29.93;;;6.20;85.20;;;;;;5097665;28;20479;-79
2022/03/24 01:08:10;;;;;;;35.50;30.40;;;6.10;85.20;;;;;;5103354;28;20521;-80
2022/03/24 01:10:41;;;;;;;32.40;29.00;;;6.10;85.40;;;;;;5100872;28;20856;-79
2022/03/24 01:13:10;;;;;;;34.83;30.50;;;6.10;85.50;;;;;;5103589;28;20460;-80
2022/03/24 01:15:38;;;;;;;35.40;30.10;;;6.00;85.50;;;;;;5103630;28;20794;-80
2022/03/24 01:18:07;;;;;;;34.37;29.13;;;6.00;85.60;;;;;;5103664;28;20458;-80
2022/03/24 01:20:35;;;;;;;35.90;31.30;;;6.00;85.60;;;;;;5103567;28;20456;-80
2022/03/24 01:23:04;;;;;;;33.00;29.30;;;6.00;85.90;;;;;;5103064;28;20459;-80
2022/03/24 01:25:32;;;;;;;37.30;30.90;;;5.90;86.20;;;;;;5092535;28;20453;-79
2022/03/24 01:28:03;;;;;;;33.77;30.10;;;5.90;86.40;;;;;;5074814;28;20470;-80
2022/03/24 01:30:31;;;;;;;34.57;29.63;;;5.90;86.50;;;;;;5103965;28;20446;-80
2022/03/24 01:32:59;;;;;;;37.70;31.03;;;5.90;86.50;;;;;;5093809;28;20536;-79
2022/03/24 01:35:28;;;;;;;33.67;29.70;;;5.90;86.60;;;;;;5083469;28;20939;-79
2022/03/24 01:37:56;;;;;;;34.07;29.97;;;5.90;86.70;;;;;;5080827;28;20467;-80
2022/03/24 01:40:25;;;;;;;36.10;30.73;;;5.80;86.60;;;;;;5083434;28;20501;-80
2022/03/24 01:42:54;;;;;;;34.97;27.73;;;5.90;86.80;;;;;;5080627;28;20503;-80
2022/03/24 01:45:25;;;;;;;33.10;29.30;;;5.80;86.80;;;;;;5082141;28;20443;-79
2022/03/24 01:47:53;;;;;;;33.77;30.17;;;5.80;86.80;;;;;;5088444;28;20799;-80
2022/03/24 01:50:22;;;;;;;36.03;29.97;;;5.70;86.70;;;;;;5085888;28;20453;-80
2022/03/24 01:52:50;;;;;;;32.97;29.47;;;5.70;86.80;;;;;;5089906;28;20475;-79
2022/03/24 01:55:20;;;;;;;34.90;31.10;;;5.70;86.90;;;;;;5102667;28;20446;-79
2022/03/24 01:57:49;;;;;;;34.17;29.37;;;5.60;86.80;;;;;;5102707;28;20445;-80
2022/03/24 02:00:17;;;;;;;37.20;31.20;;;5.60;86.90;;;;;;5102603;28;20814;-79
2022/03/24 02:02:48;;;;;;;37.13;31.00;;;5.50;86.90;;;;;;5100722;28;20519;-80
2022/03/24 02:05:18;;;;;;;36.10;31.23;;;5.50;87.00;;;;;;5087129;28;20465;-80
2022/03/24 02:07:46;;;;;;;35.10;30.87;;;5.50;87.10;;;;;;5061461;28;20508;-79
2022/03/24 02:10:17;;;;;;;32.80;28.87;;;5.50;87.30;;;;;;5063246;28;20454;-80
2022/03/24 02:12:49;;;;;;;32.27;28.77;;;5.50;87.40;;;;;;5078130;28;20518;-79
2022/03/24 02:15:18;;;;;;;33.53;29.37;;;5.40;87.30;;;;;;5063436;28;20507;-80
2022/03/24 02:17:48;;;;;;;36.40;32.27;;;5.40;87.40;;;;;;5083531;28;20452;-80
2022/03/24 02:20:17;;;;;;;34.30;30.60;;;5.40;87.50;;;;;;5102785;28;20477;-79
2022/03/24 02:22:46;;;;;;;35.20;29.60;;;5.30;87.40;;;;;;5101341;28;20445;-80
2022/03/24 02:25:15;;;;;;;33.83;29.10;;;5.30;87.50;;;;;;5101574;28;20449;-79
2022/03/24 02:27:46;;;;;;;34.80;31.00;;;5.30;87.60;;;;;;5102753;28;20433;-79
2022/03/24 02:30:15;;;;;;;33.93;30.20;;;5.20;87.50;;;;;;5100407;28;20421;-79
2022/03/24 02:32:44;;;;;;;35.90;29.63;;;5.20;87.60;;;;;;5083354;28;20469;-79
2022/03/24 02:35:13;;;;;;;35.60;31.70;;;5.20;87.70;;;;;;5088082;28;20511;-79
2022/03/24 02:37:41;;;;;;;33.73;29.53;;;5.20;87.70;;;;;;5087711;28;20464;-79
2022/03/24 02:40:13;;;;;;;35.30;30.17;;;5.20;87.70;;;;;;5063441;28;20486;-79
2022/03/24 02:42:41;;;;;;;35.27;29.60;;;5.10;87.70;;;;;;5094442;28;20437;-79
2022/03/24 02:45:10;;;;;;;37.67;30.53;;;5.10;87.80;;;;;;5080779;28;20902;-79
2022/03/24 02:47:39;;;;;;;31.50;28.20;;;5.10;87.90;;;;;;5079873;28;20500;-79
2022/03/24 02:50:09;;;;;;;36.13;31.77;;;5.00;87.90;;;;;;5086477;28;20444;-79
2022/03/24 02:52:37;;;;;;;35.20;30.50;;;5.00;87.90;;;;;;5100747;28;20468;-80
2022/03/24 02:55:07;;;;;;;37.80;33.60;;;5.00;88.00;;;;;;5088335;28;20472;-79
2022/03/24 02:57:37;;;;;;;36.23;29.37;;;5.00;88.10;;;;;;5080051;28;20469;-79
2022/03/24 03:00:08;;;;;;;34.97;28.40;;;4.90;88.10;;;;;;5081725;28;20441;-79
2022/03/24 03:02:37;;;;;;;36.50;29.33;;;4.90;88.20;;;;;;5083441;28;20452;-80
2022/03/24 03:05:06;;;;;;;37.57;30.50;;;4.90;88.20;;;;;;5097992;28;20471;-79
2022/03/24 03:07:35;;;;;;;37.03;29.93;;;4.90;88.30;;;;;;5098956;28;20528;-79
2022/03/24 03:10:04;;;;;;;34.53;30.83;;;4.80;88.30;;;;;;5080000;28;20457;-80
2022/03/24 03:12:32;;;;;;;37.17;29.80;;;4.80;88.30;;;;;;5081986;28;20460;-80
2022/03/24 03:15:01;;;;;;;37.63;33.13;;;4.80;89.00;;;;;;5100015;28;20456;-79
2022/03/24 03:17:30;;;;;;;38.07;30.70;;;4.80;88.60;;;;;;5098815;28;21056;-79
2022/03/24 03:19:58;;;;;;;36.63;30.47;;;4.70;88.50;;;;;;5097822;28;20501;-80
2022/03/24 03:22:27;;;;;;;37.23;32.27;;;4.70;88.60;;;;;;5101163;28;20542;-80
2022/03/24 03:24:55;;;;;;;39.90;31.50;;;4.70;88.70;;;;;;5085268;28;20544;-80
2022/03/24 03:27:24;;;;;;;38.33;32.20;;;4.70;88.90;;;;;;5080352;28;20475;-80
2022/03/24 03:29:52;;;;;;;35.70;29.60;;;4.70;88.90;;;;;;5080364;28;20445;-79
2022/03/24 03:32:24;;;;;;;38.07;33.73;;;4.60;88.90;;;;;;5079985;28;20441;-79
2022/03/24 03:34:52;;;;;;;38.27;31.97;;;4.70;89.10;;;;;;5081627;28;20486;-79
2022/03/24 03:37:20;;;;;;;40.83;32.07;;;4.60;89.10;;;;;;5090534;28;20509;-80
2022/03/24 03:39:49;;;;;;;39.20;32.43;;;4.60;89.10;;;;;;5081610;28;20457;-80
2022/03/24 03:42:19;;;;;;;37.60;32.30;;;4.60;89.30;;;;;;5059855;28;20990;-79
2022/03/24 03:44:47;;;;;;;37.50;31.07;;;4.50;89.40;;;;;;5059913;28;20472;-79
2022/03/24 03:47:15;;;;;;;36.57;30.53;;;4.50;89.50;;;;;;5061730;28;20482;-79
2022/03/24 03:49:45;;;;;;;37.03;33.33;;;4.50;89.60;;;;;;5081672;28;20484;-79
2022/03/24 03:52:32;;;;;;;39.00;33.00;;;4.50;89.70;;;;;;5080810;28;20453;-79
2022/03/24 03:55:00;;;;;;;34.37;29.83;;;4.40;89.70;;;;;;5072985;28;20457;-79
2022/03/24 03:57:28;;;;;;;41.60;32.10;;;4.40;89.70;;;;;;5079678;28;20469;-79
2022/03/24 04:00:52;;;;;;;39.93;31.60;;;4.40;89.70;;;;;;5080456;28;20876;-79
2022/03/24 04:02:45;;;;;;;39.30;31.87;;;4.40;89.80;;;;;;5084004;28;20871;-79
2022/03/24 04:05:15;;;;;;;37.03;30.93;;;4.40;89.90;;;;;;5092357;28;20937;-79
2022/03/24 04:07:43;;;;;;;34.70;29.10;;;4.30;89.90;;;;;;5104139;28;20796;-80
2022/03/24 04:10:12;;;;;;;38.53;30.13;;;4.30;89.90;;;;;;5104414;28;20853;-80
2022/03/24 04:12:42;;;;;;;37.77;29.50;;;4.30;90.00;;;;;;5105167;28;20439;-80
2022/03/24 04:15:10;;;;;;;39.63;32.70;;;4.30;90.00;;;;;;5104724;28;20474;-79
2022/03/24 04:17:39;;;;;;;40.63;32.50;;;4.30;90.00;;;;;;5104688;28;20455;-79
2022/03/24 04:20:08;;;;;;;42.90;31.47;;;4.30;90.00;;;;;;5091884;28;20943;-79
2022/03/24 04:22:38;;;;;;;38.13;31.20;;;4.20;90.00;;;;;;5084089;28;20449;-79
2022/03/24 04:25:07;;;;;;;40.20;31.40;;;4.20;90.00;;;;;;5083302;28;20449;-79
2022/03/24 04:27:35;;;;;;;46.43;33.80;;;4.20;90.30;;;;;;5083606;28;20532;-80
2022/03/24 04:30:04;;;;;;;46.90;37.50;;;4.10;90.00;;;;;;5093432;28;20477;-79
2022/03/24 04:32:32;;;;;;;47.97;36.00;;;4.10;90.10;;;;;;5104259;28;20438;-80
2022/03/24 04:35:00;;;;;;;48.60;36.97;;;4.10;90.10;;;;;;5104590;28;20941;-79
2022/03/24 04:37:28;;;;;;;53.70;40.57;;;4.10;90.10;;;;;;5084171;28;20461;-79
2022/03/24 04:39:58;;;;;;;57.00;46.40;;;4.10;90.10;;;;;;5085774;28;20457;-79
2022/03/24 04:42:26;;;;;;;70.90;51.13;;;4.10;90.10;;;;;;5083793;28;20512;-80
2022/03/24 04:44:54;;;;;;;47.33;38.57;;;4.00;90.10;;;;;;5084587;28;21011;-80
2022/03/24 04:47:22;;;;;;;48.27;36.80;;;4.00;90.10;;;;;;5084773;28;20453;-79
2022/03/24 04:49:51;;;;;;;61.27;40.40;;;4.00;90.20;;;;;;5085723;28;20487;-79
2022/03/24 04:52:19;;;;;;;51.33;37.10;;;4.00;90.20;;;;;;5063284;28;20492;-79
2022/03/24 04:54:47;;;;;;;46.13;36.47;;;4.00;90.20;;;;;;5074879;28;20851;-80
2022/03/24 04:57:17;;;;;;;49.20;36.33;;;3.90;90.20;;;;;;5083372;28;20830;-79
2022/03/24 04:59:45;;;;;;;44.30;36.13;;;3.90;90.30;;;;;;5087971;28;20460;-79
2022/03/24 05:02:15;;;;;;;49.33;38.70;;;3.90;90.30;;;;;;5102660;28;20444;-81
2022/03/24 05:04:44;;;;;;;48.00;37.63;;;3.90;90.30;;;;;;5100927;28;20963;-78
2022/03/24 05:07:13;;;;;;;44.50;35.93;;;3.90;90.40;;;;;;5091723;28;20910;-80
2022/03/24 05:09:41;;;;;;;55.93;38.20;;;3.80;90.40;;;;;;5103605;28;20452;-80
2022/03/24 05:12:13;;;;;;;51.77;36.80;;;3.80;90.40;;;;;;5106448;28;20454;-79
2022/03/24 05:14:44;;;;;;;44.67;34.37;;;3.80;90.40;;;;;;5094363;28;20496;-80
2022/03/24 05:17:13;;;;;;;42.07;36.00;;;3.80;90.40;;;;;;5086149;28;20512;-79
2022/03/24 05:19:41;;;;;;;47.83;35.93;;;3.80;90.50;;;;;;5093215;28;20457;-80
2022/03/24 05:22:09;;;;;;;51.00;37.77;;;3.70;90.50;;;;;;5095023;28;20441;-79
2022/03/24 05:24:40;;;;;;;44.43;35.03;;;3.80;90.60;;;;;;5097855;28;20468;-78
2022/03/24 05:27:10;;;;;;;46.47;35.40;;;3.70;90.60;;;;;;5096532;28;20477;-79
2022/03/24 05:29:39;;;;;;;45.23;36.87;;;3.70;90.60;;;;;;5097126;28;20510;-79
2022/03/24 05:32:09;;;;;;;45.83;36.60;;;3.70;90.70;;;;;;5090562;28;20863;-79
2022/03/24 05:34:38;;;;;;;47.07;35.27;;;3.70;90.70;;;;;;5084960;28;20868;-79
2022/03/24 05:37:06;;;;;;;47.60;35.63;;;3.70;90.70;;;;;;5087532;28;20465;-79
2022/03/24 05:39:34;;;;;;;48.53;35.67;;;3.70;90.80;;;;;;5082561;28;20453;-79
2022/03/24 05:42:03;;;;;;;45.27;35.23;;;3.70;90.80;;;;;;5082953;28;20445;-80
2022/03/24 05:44:31;;;;;;;47.23;35.70;;;3.70;90.90;;;;;;5083583;28;20513;-80
2022/03/24 05:46:59;;;;;;;43.73;35.00;;;3.70;90.90;;;;;;5084782;28;20484;-79
2022/03/24 05:49:29;;;;;;;47.13;34.43;;;3.70;91.00;;;;;;5083707;28;20449;-80
2022/03/24 05:52:24;;;;;;;47.20;35.00;;;3.70;91.00;;;;;;5100562;28;20859;-80
2022/03/24 05:54:52;;;;;;;45.53;33.73;;;3.70;91.00;;;;;;5083004;28;20816;-80
2022/03/24 05:57:21;;;;;;;47.07;36.17;;;3.70;91.00;;;;;;5084078;28;20824;-79
2022/03/24 05:59:49;;;;;;;44.53;33.37;;;3.70;91.10;;;;;;5083533;28;20449;-80
2022/03/24 06:02:17;;;;;;;42.23;34.03;;;3.70;91.10;;;;;;5084037;28;20449;-80
2022/03/24 06:04:48;;;;;;;43.20;33.63;;;3.70;91.10;;;;;;5097353;28;20479;-78
2022/03/24 06:07:17;;;;;;;50.73;36.53;;;3.70;91.20;;;;;;5078204;28;20552;-79
2022/03/24 06:09:48;;;;;;;47.73;33.80;;;3.70;91.20;;;;;;5078245;28;20449;-78
2022/03/24 06:12:18;;;;;;;45.13;36.20;;;3.80;91.30;;;;;;5079295;28;20421;-78
2022/03/24 06:14:47;;;;;;;46.07;36.03;;;3.80;91.30;;;;;;5078910;28;20511;-78
2022/03/24 06:17:15;;;;;;;44.53;36.00;;;3.80;91.40;;;;;;5079380;28;20464;-79
2022/03/24 06:19:45;;;;;;;44.67;36.57;;;3.80;91.40;;;;;;5078353;28;20449;-78
2022/03/24 06:22:15;;;;;;;50.80;41.43;;;3.90;91.50;;;;;;5096703;28;20484;-80
2022/03/24 06:24:43;;;;;;;45.67;35.07;;;4.00;91.60;;;;;;5079803;28;21016;-80
2022/03/24 06:27:12;;;;;;;48.47;37.73;;;4.00;91.70;;;;;;5082592;28;21031;-80
2022/03/24 06:29:40;;;;;;;51.27;39.30;;;4.20;91.90;;;;;;5081584;28;20449;-80
2022/03/24 06:32:09;;;;;;;49.33;39.73;;;4.30;92.00;;;;;;5083551;28;20504;-81
2022/03/24 06:34:38;;;;;;;50.50;40.10;;;4.50;92.10;;;;;;5081460;28;20475;-81
2022/03/24 06:37:07;;;;;;;67.17;51.90;;;4.60;92.20;;;;;;5082104;28;20491;-81
2022/03/24 06:39:36;;;;;;;54.73;45.30;;;4.80;92.40;;;;;;5081864;28;20445;-81
2022/03/24 06:42:05;;;;;;;55.37;42.90;;;5.00;92.60;;;;;;5098914;28;20453;-81
2022/03/24 06:44:35;;;;;;;50.20;43.13;;;5.20;92.70;;;;;;5083541;28;20489;-81
2022/03/24 06:47:04;;;;;;;50.80;40.70;;;5.40;92.90;;;;;;5083601;28;20461;-81
2022/03/24 06:49:33;;;;;;;50.80;41.43;;;5.60;93.00;;;;;;5081933;28;20540;-82
2022/03/24 06:52:01;;;;;;;47.77;42.63;;;5.80;93.40;;;;;;5082367;28;20463;-82
2022/03/24 06:54:30;;;;;;;55.23;45.80;;;5.90;93.20;;;;;;5082425;28;20453;-82
2022/03/24 06:56:59;;;;;;;48.27;43.17;;;6.10;93.40;;;;;;5082597;28;20453;-82
2022/03/24 06:59:28;;;;;;;44.73;39.67;;;6.20;93.50;;;;;;5083536;28;20449;-82
2022/03/24 07:01:56;;;;;;;46.17;41.17;;;6.30;93.50;;;;;;5083300;28;20435;-82
2022/03/24 07:04:25;;;;;;;46.57;41.73;;;6.40;93.60;;;;;;5083645;28;20477;-82
2022/03/24 07:06:53;;;;;;;46.47;41.40;;;6.50;93.60;;;;;;5083181;28;20483;-82
2022/03/24 07:09:21;;;;;;;46.20;41.20;;;6.60;93.60;;;;;;5083024;28;20438;-82
2022/03/24 07:11:54;;;;;;;43.47;38.80;;;6.70;93.60;;;;;;5081708;28;20870;-81
2022/03/24 07:14:24;;;;;;;41.73;37.50;;;6.80;93.60;;;;;;5083176;28;20913;-82
2022/03/24 07:16:53;;;;;;;45.83;38.83;;;6.90;93.60;;;;;;5081225;28;20481;-82
2022/03/24 07:19:21;;;;;;;43.43;38.40;;;7.00;93.60;;;;;;5081359;28;20454;-82
2022/03/24 07:21:49;;;;;;;42.97;38.37;;;7.10;93.60;;;;;;5080967;28;20654;-82
2022/03/24 07:24:19;;;;;;;43.73;39.07;;;7.20;93.60;;;;;;5080562;28;20456;-82
2022/03/24 07:26:47;;;;;;;45.53;40.60;;;7.40;93.70;;;;;;5081088;28;20488;-82
2022/03/24 07:29:15;;;;;;;41.87;37.47;;;7.40;93.60;;;;;;5081620;28;20448;-82
2022/03/24 07:31:45;;;;;;;42.00;37.67;;;7.40;93.50;;;;;;5082646;28;20456;-82
2022/03/24 07:34:13;;;;;;;40.70;36.40;;;7.50;93.40;;;;;;5081351;28;20446;-82
2022/03/24 07:36:43;;;;;;;39.83;35.60;;;7.60;93.40;;;;;;5082004;28;20504;-82
2022/03/24 07:39:11;;;;;;;38.50;34.57;;;7.70;93.40;;;;;;5084757;28;20479;-82
2022/03/24 07:41:40;;;;;;;38.87;34.97;;;7.80;93.40;;;;;;5085236;28;20448;-82
2022/03/24 07:44:08;;;;;;;37.13;33.33;;;7.90;93.40;;;;;;5083427;28;20440;-82
2022/03/24 07:46:38;;;;;;;39.57;35.37;;;7.90;93.30;;;;;;5082310;28;20519;-82
2022/03/24 07:49:09;;;;;;;40.37;36.13;;;8.00;93.30;;;;;;5083197;28;20440;-82
2022/03/24 07:51:39;;;;;;;40.47;36.00;;;8.10;93.30;;;;;;5082792;28;20458;-82
2022/03/24 07:54:10;;;;;;;40.53;35.97;;;8.20;93.30;;;;;;5081201;28;20445;-82
2022/03/24 07:56:39;;;;;;;42.57;36.83;;;8.30;93.30;;;;;;5081047;28;20531;-82
2022/03/24 07:59:08;;;;;;;41.43;37.03;;;8.50;93.30;;;;;;5081039;28;20471;-82
2022/03/24 08:01:37;;;;;;;42.80;38.10;;;8.70;93.30;;;;;;5081477;28;20456;-82
2022/03/24 08:04:08;;;;;;;40.17;35.87;;;8.90;93.30;;;;;;5081265;28;20457;-82
2022/03/24 08:06:36;;;;;;;42.03;35.73;;;9.10;93.30;;;;;;5080785;28;20469;-82
2022/03/24 08:09:04;;;;;;;37.47;33.27;;;9.40;93.30;;;;;;5082138;28;20436;-82
2022/03/24 08:11:33;;;;;;;37.60;33.67;;;9.50;93.20;;;;;;5079113;28;20456;-82
2022/03/24 08:14:01;;;;;;;36.23;32.47;;;9.70;93.10;;;;;;5080901;28;20804;-82
2022/03/24 08:16:30;;;;;;;37.03;31.27;;;10.00;92.70;;;;;;5080237;28;20480;-83
2022/03/24 08:18:58;;;;;;;36.00;32.20;;;10.20;92.60;;;;;;5080137;28;20441;-83
2022/03/24 08:21:28;;;;;;;35.90;32.10;;;10.40;92.50;;;;;;5080486;28;20491;-83
2022/03/24 08:23:56;;;;;;;36.20;32.40;;;10.60;92.40;;;;;;5080921;28;20457;-84
2022/03/24 08:26:24;;;;;;;35.90;31.90;;;10.80;92.40;;;;;;5080267;28;20809;-83
2022/03/24 08:28:56;;;;;;;34.97;31.37;;;11.00;92.30;;;;;;5079511;28;20494;-83
2022/03/24 08:31:26;;;;;;;35.27;31.57;;;11.20;92.30;;;;;;5082934;28;20524;-83
2022/03/24 08:33:55;;;;;;;37.60;32.53;;;11.40;92.30;;;;;;5084991;28;20494;-84
2022/03/24 08:36:24;;;;;;;36.87;32.93;;;11.60;92.20;;;;;;5086077;28;20484;-84
2022/03/24 08:38:56;;;;;;;41.20;32.67;;;11.70;92.10;;;;;;5084205;28;20547;-82
2022/03/24 08:41:25;;;;;;;36.57;32.80;;;11.90;92.10;;;;;;5082722;28;20510;-82
2022/03/24 08:43:54;;;;;;;38.07;32.13;;;12.10;92.10;;;;;;5080943;28;20502;-81
2022/03/24 08:46:25;;;;;;;34.30;30.80;;;12.30;92.00;;;;;;5080332;28;20469;-83
2022/03/24 08:48:54;;;;;;;38.67;32.23;;;12.40;91.90;;;;;;5081116;28;20436;-82
2022/03/24 08:51:23;;;;;;;35.03;31.43;;;12.60;91.80;;;;;;5081732;28;20450;-82
2022/03/24 08:53:53;;;;;;;37.17;31.30;;;12.70;91.70;;;;;;5080388;28;20948;-81
2022/03/24 08:56:22;;;;;;;34.63;30.40;;;12.80;91.50;;;;;;5078060;28;20469;-81
2022/03/24 08:58:50;;;;;;;34.10;30.60;;;13.00;91.30;;;;;;5079494;28;20889;-82
2022/03/24 09:01:21;;;;;;;37.70;29.23;;;13.10;91.10;;;;;;5079556;28;20514;-82
2022/03/24 09:03:51;;;;;;;34.37;29.87;;;13.30;91.00;;;;;;5078092;28;20520;-82
2022/03/24 09:06:22;;;;;;;31.40;28.00;;;13.40;90.80;;;;;;5077645;28;20480;-82
2022/03/24 09:08:50;;;;;;;31.73;28.30;;;13.60;90.70;;;;;;5079083;28;20930;-82
2022/03/24 09:11:20;;;;;;;33.27;29.87;;;13.70;90.50;;;;;;5077282;28;20967;-83
2022/03/24 09:13:49;;;;;;;33.57;30.10;;;13.80;90.30;;;;;;5077327;28;20445;-81
2022/03/24 09:16:17;;;;;;;31.03;27.87;;;14.00;90.10;;;;;;5078813;28;20568;-80
2022/03/24 09:18:45;;;;;;;33.03;29.50;;;14.10;90.00;;;;;;5078767;28;20445;-81
2022/03/24 09:21:14;;;;;;;31.97;28.67;;;14.20;89.70;;;;;;5077420;28;21036;-81
2022/03/24 09:23:42;;;;;;;31.83;28.57;;;14.30;89.40;;;;;;5078502;28;20467;-82
2022/03/24 09:26:12;;;;;;;32.93;28.83;;;14.40;89.20;;;;;;5079351;28;20556;-82
2022/03/24 09:28:58;;;;;;;34.27;30.47;;;14.50;89.10;;;;;;5079431;28;20860;-82
2022/03/24 09:31:27;;;;;;;35.03;29.20;;;14.60;88.90;;;;;;5077740;28;20500;-82
2022/03/24 09:33:55;;;;;;;34.17;29.77;;;14.70;89.30;;;;;;5077826;28;21009;-82
2022/03/24 09:36:24;;;;;;;38.20;29.30;;;14.80;88.30;;;;;;5077233;28;20546;-82
2022/03/24 09:38:54;;;;;;;31.97;28.50;;;14.80;87.70;;;;;;5080166;28;20452;-82
2022/03/24 09:41:26;;;;;;;34.10;30.57;;;14.90;87.50;;;;;;5079570;28;20498;-83
2022/03/24 09:43:58;;;;;;;34.60;29.37;;;14.90;87.20;;;;;;5097496;28;20469;-83
2022/03/24 09:46:28;;;;;;;34.10;30.47;;;15.00;87.00;;;;;;5078386;28;20993;-83
2022/03/24 09:48:58;;;;;;;32.57;29.20;;;15.00;86.70;;;;;;5077284;28;20445;-83
2022/03/24 09:51:27;;;;;;;32.77;27.23;;;15.10;86.50;;;;;;5078222;28;20456;-83
2022/03/24 09:53:55;;;;;;;37.07;27.20;;;15.20;86.30;;;;;;5079893;28;20428;-83
2022/03/24 09:56:24;;;;;;;32.47;28.23;;;15.20;85.90;;;;;;5078671;28;20508;-83
2022/03/24 09:58:52;;;;;;;32.57;29.13;;;15.30;85.70;;;;;;5077954;28;20813;-83
2022/03/24 10:01:22;;;;;;;31.90;28.53;;;15.30;85.30;;;;;;5081442;28;20610;-84
2022/03/24 10:04:05;;;;;;;32.37;28.87;;;15.30;84.70;;;;;;5078203;28;20460;-79
2022/03/24 10:06:34;;;;;;;33.17;29.30;;;15.30;84.10;;;;;;5076360;28;20476;-80
2022/03/24 10:09:03;;;;;;;33.10;29.20;;;15.30;84.20;;;;;;5076791;28;20444;-79
2022/03/24 10:11:35;;;;;;;29.27;26.03;;;15.30;83.90;;;;;;5075993;28;20459;-77
2022/03/24 10:14:05;;;;;;;28.80;25.40;;;15.30;83.80;;;;;;5077291;28;20467;-79
2022/03/24 10:16:43;;;;;;;30.60;26.63;;;15.30;83.50;;;;;;5076282;28;20953;-82
2022/03/24 10:19:14;;;;;;;29.83;26.87;;;15.40;83.10;;;;;;5076791;28;20419;-81
2022/03/24 10:21:45;;;;;;;31.30;25.73;;;15.40;82.80;;;;;;5077714;28;20825;-81
2022/03/24 10:24:15;;;;;;;29.77;26.53;;;15.40;83.30;;;;;;5077745;28;20473;-81
2022/03/24 10:26:46;;;;;;;30.43;27.13;;;15.40;82.70;;;;;;5077939;28;20465;-81
2022/03/24 10:29:16;;;;;;;29.13;25.97;;;15.40;82.50;;;;;;5076843;28;20412;-80
2022/03/24 10:31:51;;;;;;;28.50;23.90;;;15.50;82.50;;;;;;5080336;28;20450;-81
2022/03/24 10:34:29;;;;;;;28.97;24.37;;;15.50;82.20;;;;;;5077460;28;20441;-81
2022/03/24 10:36:58;;;;;;;30.47;26.93;;;15.50;81.70;;;;;;5076668;28;20469;-81
2022/03/24 10:39:27;;;;;;;28.00;25.13;;;15.50;81.70;;;;;;5079084;28;20441;-81
2022/03/24 10:42:11;;;;;;;29.67;25.80;;;15.50;81.60;;;;;;5077831;28;20954;-81
2022/03/24 10:45:06;;;;;;;32.20;26.57;;;15.60;81.50;;;;;;5080553;28;20449;-81
2022/03/24 10:47:45;;;;;;;28.17;25.20;;;15.60;81.50;;;;;;5079356;28;20444;-81
2022/03/24 10:50:37;;;;;;;28.77;25.37;;;15.70;81.40;;;;;;5077505;28;20472;-81
2022/03/24 10:53:08;;;;;;;29.37;25.10;;;15.70;81.40;;;;;;5078088;28;20494;-81
2022/03/24 10:55:55;;;;;;;29.90;26.90;;;15.70;81.40;;;;;;5077589;28;20548;-81
2022/03/24 10:58:30;;;;;;;32.30;28.83;;;15.80;81.40;;;;;;5077902;28;20439;-81
2022/03/24 11:01:01;;;;;;;30.27;27.17;;;15.80;81.30;;;;;;5078206;28;20544;-81
2022/03/24 11:03:33;;;;;;;34.03;27.60;;;15.90;81.20;;;;;;5077664;28;20416;-81
2022/03/24 11:06:09;;;;;;;32.37;28.23;;;15.90;81.00;;;;;;5078711;28;20817;-81
2022/03/24 11:08:38;;;;;;;32.93;28.57;;;15.90;81.00;;;;;;5077581;28;20535;-81
2022/03/24 11:11:09;;;;;;;30.80;27.07;;;16.00;81.00;;;;;;5078158;28;20789;-82
2022/03/24 11:13:43;;;;;;;33.67;28.47;;;16.00;80.90;;;;;;5076444;28;20423;-81
2022/03/24 11:16:13;;;;;;;30.90;27.73;;;16.00;80.70;;;;;;5078866;28;20905;-80
2022/03/24 11:18:43;;;;;;;36.50;26.80;;;16.00;80.50;;;;;;5080412;28;20561;-82
2022/03/24 11:21:16;;;;;;;28.00;25.00;;;16.10;80.50;;;;;;5078380;28;20427;-82
2022/03/24 11:23:46;;;;;;;28.50;25.50;;;16.10;80.60;;;;;;5077154;28;20525;-81
2022/03/24 11:26:16;;;;;;;29.83;26.83;;;16.10;80.70;;;;;;5076437;28;20447;-81
2022/03/24 11:28:46;;;;;;;29.57;25.40;;;16.10;80.40;;;;;;5076807;28;20441;-81
2022/03/24 11:31:16;;;;;;;31.77;28.57;;;16.10;80.40;;;;;;5074802;28;20437;-81
2022/03/24 11:33:48;;;;;;;31.33;28.03;;;16.20;80.40;;;;;;5075949;28;20477;-81
2022/03/24 11:36:18;;;;;;;31.57;26.43;;;16.20;80.30;;;;;;5075596;28;20495;-81
2022/03/24 11:38:49;;;;;;;29.40;25.00;;;16.20;80.00;;;;;;5075972;28;20571;-81
2022/03/24 11:41:26;;;;;;;27.03;22.60;;;16.30;79.80;;;;;;5075039;28;20441;-81
2022/03/24 11:44:04;;;;;;;25.03;22.33;;;16.30;79.40;;;;;;5075065;28;20508;-81
2022/03/24 11:46:40;;;;;;;26.90;23.80;;;16.30;79.20;;;;;;5076085;28;21002;-81
2022/03/24 11:49:24;;;;;;;23.67;19.80;;;16.30;79.10;;;;;;5075485;28;20477;-81
2022/03/24 11:52:25;;;;;;;28.50;24.70;;;16.30;78.60;;;;;;5074807;28;20498;-81
2022/03/24 11:54:56;;;;;;;22.57;20.17;;;16.40;78.30;;;;;;5075873;28;20426;-81
2022/03/24 11:57:37;;;;;;;23.27;18.20;;;16.40;78.30;;;;;;5074846;28;20447;-81
2022/03/24 12:00:41;;;;;;;24.00;20.30;;;16.30;77.10;;;;;;5076031;28;20452;-81
2022/03/24 12:03:44;;;;;;;27.70;24.80;;;16.30;76.90;;;;;;5055242;28;20431;-81
2022/03/24 12:06:14;;;;;;;26.20;23.07;;;16.40;77.30;;;;;;5076070;28;20447;-82
2022/03/24 12:08:50;;;;;;;25.67;20.93;;;16.40;77.60;;;;;;5076201;28;20523;-81
2022/03/24 12:11:37;;;;;;;26.50;23.60;;;16.40;77.40;;;;;;5076142;28;20889;-81
2022/03/24 12:14:08;;;;;;;27.63;23.37;;;16.40;77.30;;;;;;5076077;28;20423;-80
2022/03/24 12:16:39;;;;;;;17.47;15.53;;;16.50;77.30;;;;;;5076312;28;20504;-80
2022/03/24 12:19:28;;;;;;;23.40;20.30;;;16.50;77.00;;;;;;5076095;28;20439;-80
2022/03/24 12:21:58;;;;;;;27.20;24.30;;;16.50;76.80;;;;;;5076122;28;20473;-81
2022/03/24 12:24:35;;;;;;;29.37;26.27;;;16.50;77.00;;;;;;5080525;28;20519;-81
2022/03/24 12:27:06;;;;;;;29.40;26.07;;;16.60;77.10;;;;;;5079757;28;20442;-80
2022/03/24 12:29:34;;;;;;;29.93;25.63;;;16.60;77.20;;;;;;5079730;28;20424;-80
2022/03/24 12:32:05;;;;;;;27.77;24.83;;;16.60;77.00;;;;;;5080576;28;20428;-81
2022/03/24 12:34:44;;;;;;;28.33;25.60;;;16.60;77.00;;;;;;5081402;28;20447;-80
2022/03/24 12:37:47;;;;;;;28.27;25.17;;;16.70;77.10;;;;;;5079038;28;20478;-77
2022/03/24 12:40:17;;;;;;;29.87;26.67;;;16.70;77.20;;;;;;5084741;28;20472;-79
2022/03/24 12:42:47;;;;;;;30.70;25.33;;;16.80;77.40;;;;;;5083822;28;20733;-77
2022/03/24 12:45:36;;;;;;;30.90;24.70;;;16.80;77.20;;;;;;5077658;28;20389;-77
2022/03/24 12:48:39;;;;;;;28.40;24.70;;;16.80;77.10;;;;;;5076766;28;20441;-77
2022/03/24 12:51:17;;;;;;;30.37;25.30;;;16.80;77.00;;;;;;5077553;28;20479;-77